Terminal Aerodrome Forecast
Issued by NWS Billings, MT

Current Version | Previous Version | Text Only | Print | Product List | Glossary On
Versions: 1 2 3 4 5 6 7 8 9 10 11 12 13 14 15 16 17 18 19 20 21 22 23 24 25 26
000
FTUS45 KBYZ 041732
TAFMLS
TAF
KMLS 041732Z 0418/0518 14017G24KT P6SM FEW060
     FM050300 15012KT P6SM FEW150 WS014/17040KT=

USA.gov is the U.S. government's official web portal to all federal, state and local government web resources and services.